createdAt,value
2022-10-09T00:01:08.639Z,7.65
2022-10-09T00:03:36.839Z,7.47
2022-10-09T00:06:04.369Z,5.57
2022-10-09T00:08:31.378Z,9.07
2022-10-09T00:10:58.356Z,6.50
2022-10-09T00:13:25.729Z,8.85
2022-10-09T00:15:52.618Z,5.35
2022-10-09T00:18:19.671Z,11.02
2022-10-09T00:20:47.295Z,5.95
2022-10-09T00:23:17.407Z,8.93
2022-10-09T00:26:00.967Z,10.32
2022-10-09T00:28:30.531Z,8.07
2022-10-09T00:30:58.743Z,10.25
2022-10-09T00:33:25.760Z,7.40
2022-10-09T00:35:52.754Z,7.05
2022-10-09T00:38:19.657Z,10.40
2022-10-09T00:40:46.699Z,7.53
2022-10-09T00:43:19.662Z,6.07
2022-10-09T00:45:56.486Z,6.60
2022-10-09T00:48:23.944Z,7.88
2022-10-09T00:50:56.502Z,6.38
2022-10-09T00:53:26.958Z,7.57
2022-10-09T00:55:54.264Z,6.10
2022-10-09T00:58:23.567Z,9.23
2022-10-09T01:00:50.540Z,6.80
2022-10-09T01:03:17.582Z,7.32
2022-10-09T01:05:50.942Z,11.02
2022-10-09T01:08:25.792Z,9.77
2022-10-09T01:11:05.655Z,5.53
2022-10-09T01:13:35.884Z,5.03
2022-10-09T01:16:18.320Z,7.03
2022-10-09T01:19:26.440Z,7.90
2022-10-09T01:21:58.949Z,7.28
2022-10-09T01:24:52.527Z,7.28
2022-10-09T01:27:23.909Z,7.63
2022-10-09T01:30:07.735Z,9.25
2022-10-09T01:32:48.888Z,7.07
2022-10-09T01:35:17.466Z,9.23
2022-10-09T01:37:46.656Z,6.05
2022-10-09T01:40:17.212Z,5.43
2022-10-09T01:42:47.110Z,7.88
2022-10-09T01:45:15.775Z,7.65
2022-10-09T01:47:43.304Z,8.27
2022-10-09T01:50:21.195Z,5.00
2022-10-09T01:52:50.628Z,7.97
2022-10-09T01:55:26.942Z,4.88
2022-10-09T01:58:20.287Z,7.95
2022-10-09T02:01:16.617Z,6.88
2022-10-09T02:03:46.428Z,6.63
2022-10-09T02:06:16.315Z,7.07
2022-10-09T02:08:45.831Z,9.52
2022-10-09T02:11:17.368Z,6.63
2022-10-09T02:13:46.452Z,5.88
2022-10-09T02:16:21.106Z,7.05
2022-10-09T02:19:20.521Z,4.93
2022-10-09T02:21:55.584Z,7.93
2022-10-09T02:24:23.627Z,6.72
2022-10-09T02:26:53.150Z,10.15
2022-10-09T02:29:20.810Z,6.40
2022-10-09T02:31:47.795Z,5.35
2022-10-09T02:34:18.326Z,8.23
2022-10-09T02:36:46.093Z,5.43
2022-10-09T02:39:12.999Z,5.82
2022-10-09T02:41:39.968Z,9.02
2022-10-09T02:44:07.400Z,8.70
2022-10-09T02:46:34.586Z,5.00
2022-10-09T02:49:01.620Z,4.82
2022-10-09T02:51:28.594Z,5.85
2022-10-09T02:53:55.768Z,6.60
2022-10-09T02:56:23.831Z,4.25
2022-10-09T02:58:51.173Z,8.38
2022-10-09T03:01:18.680Z,4.60
2022-10-09T03:03:45.646Z,12.43
2022-10-09T03:06:15.744Z,6.00
2022-10-09T03:08:45.360Z,6.13
2022-10-09T03:11:14.231Z,4.65
2022-10-09T03:13:41.611Z,4.72
2022-10-09T03:16:14.281Z,6.43
2022-10-09T03:18:41.756Z,5.53
2022-10-09T03:21:11.120Z,5.72
2022-10-09T03:23:38.241Z,6.30
2022-10-09T03:26:08.927Z,7.68
2022-10-09T03:28:37.837Z,4.78
2022-10-09T03:31:05.300Z,5.57
2022-10-09T03:33:32.912Z,8.13
2022-10-09T03:35:59.816Z,7.82
2022-10-09T03:38:26.810Z,6.30
2022-10-09T03:40:54.121Z,5.53
2022-10-09T03:43:21.208Z,4.38
2022-10-09T03:45:48.099Z,8.57
2022-10-09T03:48:15.545Z,6.47
2022-10-09T03:50:43.204Z,6.15
2022-10-09T03:53:11.864Z,4.97
2022-10-09T03:55:39.844Z,3.97
2022-10-09T03:58:07.679Z,5.97
2022-10-09T04:00:34.876Z,7.53
2022-10-09T04:03:02.080Z,7.07
2022-10-09T04:05:30.459Z,5.60
2022-10-09T04:07:57.555Z,5.95
2022-10-09T04:10:24.480Z,6.38
2022-10-09T04:12:51.688Z,7.82
2022-10-09T04:15:18.751Z,6.50
2022-10-09T04:17:45.724Z,4.72
2022-10-09T04:20:12.761Z,5.68
2022-10-09T04:22:39.700Z,4.45
2022-10-09T04:25:06.840Z,9.82
2022-10-09T04:27:33.801Z,6.53
2022-10-09T04:30:00.710Z,5.90
2022-10-09T04:32:27.712Z,8.25
2022-10-09T04:34:54.623Z,4.93
2022-10-09T04:37:21.591Z,10.20
2022-10-09T04:39:48.501Z,6.22
2022-10-09T04:42:15.444Z,6.88
2022-10-09T04:44:42.320Z,5.40
2022-10-09T04:47:11.252Z,5.50
2022-10-09T04:49:38.499Z,5.10
2022-10-09T04:52:05.506Z,12.65
2022-10-09T04:54:32.435Z,5.05
2022-10-09T04:56:59.385Z,5.95
2022-10-09T04:59:26.272Z,5.13
2022-10-09T05:01:53.277Z,6.75
2022-10-09T05:04:20.205Z,8.95
2022-10-09T05:06:47.250Z,5.10
2022-10-09T05:09:14.200Z,5.40
2022-10-09T05:11:42.861Z,4.45
2022-10-09T05:14:10.580Z,6.57
2022-10-09T05:17:00.953Z,7.82
2022-10-09T05:19:24.522Z,5.07
2022-10-09T05:21:51.484Z,5.05
2022-10-09T05:24:18.483Z,7.40
2022-10-09T05:26:45.437Z,6.03
2022-10-09T05:29:12.503Z,7.78
2022-10-09T05:31:39.433Z,5.72
2022-10-09T05:34:06.456Z,6.32
2022-10-09T05:36:33.404Z,6.93
2022-10-09T05:39:03.515Z,7.43
2022-10-09T05:41:30.736Z,4.13
2022-10-09T05:44:02.273Z,5.18
2022-10-09T05:46:32.061Z,6.28
2022-10-09T05:49:07.496Z,4.53
2022-10-09T05:51:37.472Z,6.25
2022-10-09T05:54:05.986Z,8.30
2022-10-09T05:56:35.491Z,4.15
2022-10-09T05:59:05.335Z,5.25
2022-10-09T06:01:35.461Z,6.70
2022-10-09T06:04:03.887Z,5.55
2022-10-09T06:06:33.814Z,4.28
2022-10-09T06:09:00.763Z,5.82
2022-10-09T06:11:31.656Z,6.70
2022-10-09T06:14:00.705Z,5.32
2022-10-09T06:16:33.554Z,5.07
2022-10-09T06:19:01.579Z,5.00
2022-10-09T06:21:29.131Z,6.18
2022-10-09T06:23:58.286Z,12.30
2022-10-09T06:26:26.726Z,4.55
2022-10-09T06:28:53.666Z,5.55
2022-10-09T06:31:23.795Z,8.10
2022-10-09T06:33:52.191Z,6.00
2022-10-09T06:36:22.204Z,7.50
2022-10-09T06:38:49.662Z,7.60
2022-10-09T06:41:25.808Z,5.82
2022-10-09T06:43:55.099Z,5.35
2022-10-09T06:46:27.580Z,10.00
2022-10-09T06:48:54.606Z,8.13
2022-10-09T06:51:23.172Z,5.40
2022-10-09T06:53:52.874Z,7.00
2022-10-09T06:56:22.522Z,6.65
2022-10-09T06:58:49.597Z,5.68
2022-10-09T07:01:32.576Z,5.32
2022-10-09T07:04:07.137Z,6.80
2022-10-09T07:06:38.348Z,8.18
2022-10-09T07:09:08.149Z,9.25
2022-10-09T07:11:41.022Z,12.32
2022-10-09T07:14:09.647Z,11.07
2022-10-09T07:16:39.194Z,10.18
2022-10-09T07:19:08.497Z,10.80
2022-10-09T07:21:36.075Z,9.18
2022-10-09T07:24:04.725Z,13.65
2022-10-09T07:26:34.559Z,10.90
2022-10-09T07:29:02.699Z,10.55
2022-10-09T07:31:29.728Z,13.98
2022-10-09T07:33:57.073Z,11.93
2022-10-09T07:36:24.640Z,19.75
2022-10-09T07:38:56.737Z,18.30
2022-10-09T07:41:26.216Z,23.23
2022-10-09T07:43:53.547Z,18.23
2022-10-09T07:46:22.348Z,19.75
2022-10-09T07:48:50.035Z,19.80
2022-10-09T07:51:22.674Z,21.45
2022-10-09T07:53:50.260Z,18.73
2022-10-09T07:56:19.552Z,14.65
2022-10-09T07:58:56.670Z,12.85
2022-10-09T08:01:24.693Z,12.32
2022-10-09T08:03:51.679Z,14.43
2022-10-09T08:06:19.609Z,16.30
2022-10-09T08:08:50.861Z,14.95
2022-10-09T08:11:18.423Z,20.23
2022-10-09T08:13:46.911Z,18.27
2022-10-09T08:16:15.344Z,14.65
2022-10-09T08:18:42.309Z,21.02
2022-10-09T08:21:17.765Z,17.15
2022-10-09T08:23:45.386Z,14.85
2022-10-09T08:26:17.538Z,27.67
2022-10-09T08:28:45.276Z,19.75
2022-10-09T08:31:13.853Z,20.92
2022-10-09T08:33:41.193Z,15.98
2022-10-09T08:36:10.427Z,16.83
2022-10-09T08:38:47.213Z,22.50
2022-10-09T08:41:32.851Z,31.25
2022-10-09T08:44:19.111Z,23.30
2022-10-09T08:47:01.200Z,26.05
2022-10-09T08:49:38.538Z,13.20
2022-10-09T08:52:20.501Z,16.83
2022-10-09T08:54:47.635Z,14.55
2022-10-09T08:57:16.512Z,12.10
2022-10-09T08:59:44.720Z,14.73
2022-10-09T09:02:41.234Z,11.35
2022-10-09T09:05:33.149Z,12.43
2022-10-09T09:08:22.111Z,11.30
2022-10-09T09:11:05.662Z,10.32
2022-10-09T09:13:59.925Z,10.70
2022-10-09T09:16:36.171Z,12.88
2022-10-09T09:19:21.738Z,13.38
2022-10-09T09:21:54.110Z,8.88
2022-10-09T09:24:35.895Z,11.77
2022-10-09T09:27:10.733Z,9.10
2022-10-09T09:29:46.433Z,10.88
2022-10-09T09:32:21.668Z,8.60
2022-10-09T09:34:48.866Z,7.07
2022-10-09T09:37:16.278Z,5.70
2022-10-09T09:42:36.731Z,9.27
2022-10-09T09:45:12.996Z,9.10
2022-10-09T09:47:45.583Z,10.73
2022-10-09T09:50:28.822Z,10.85
2022-10-09T09:53:06.497Z,10.85
2022-10-09T09:55:34.658Z,7.25
2022-10-09T09:58:07.431Z,10.15
2022-10-09T10:00:35.658Z,8.45
2022-10-09T10:03:17.915Z,9.48
2022-10-09T10:05:45.370Z,7.68
2022-10-09T10:08:32.055Z,10.00
2022-10-09T10:11:01.859Z,9.02
2022-10-09T10:14:08.187Z,7.47
2022-10-09T10:16:38.304Z,9.90
2022-10-09T10:19:06.773Z,9.77
2022-10-09T10:21:41.963Z,9.20
2022-10-09T10:24:15.309Z,8.07
2022-10-09T10:27:09.594Z,7.93
2022-10-09T10:29:45.312Z,10.80
2022-10-09T10:32:14.857Z,8.20
2022-10-09T10:35:14.664Z,11.30
2022-10-09T10:37:55.332Z,9.95
2022-10-09T10:40:37.996Z,8.05
2022-10-09T10:43:10.929Z,8.32
2022-10-09T10:46:02.068Z,10.10
2022-10-09T10:48:40.054Z,8.60
2022-10-09T10:51:35.114Z,8.80
2022-10-09T10:54:20.526Z,11.07
2022-10-09T10:57:09.181Z,7.40
2022-10-09T10:59:54.139Z,7.05
2022-10-09T11:02:58.360Z,11.88
2022-10-09T11:05:28.213Z,9.95
2022-10-09T11:08:09.127Z,11.45
2022-10-09T11:10:57.728Z,8.88
2022-10-09T11:13:40.192Z,6.47
2022-10-09T11:16:32.959Z,12.75
2022-10-09T11:19:31.348Z,12.88
2022-10-09T11:22:07.567Z,8.50
2022-10-09T11:24:56.460Z,7.68
2022-10-09T11:27:39.695Z,10.73
2022-10-09T11:30:14.996Z,12.48
2022-10-09T11:33:05.483Z,9.27
2022-10-09T11:35:43.101Z,10.40
2022-10-09T11:38:22.311Z,6.82
2022-10-09T11:40:49.686Z,9.32
2022-10-09T11:43:25.566Z,7.90
2022-10-09T11:46:08.186Z,10.27
2022-10-09T11:49:07.778Z,9.40
2022-10-09T11:51:49.641Z,9.48
2022-10-09T11:54:22.291Z,7.35
2022-10-09T11:56:59.527Z,8.00
2022-10-09T11:59:30.840Z,8.32
2022-10-09T12:01:59.960Z,8.45
2022-10-09T12:10:22.712Z,6.65
2022-10-09T12:13:34.385Z,8.23
2022-10-09T12:16:01.423Z,9.13
2022-10-09T12:18:33.301Z,7.25
2022-10-09T12:21:06.538Z,7.65
2022-10-09T12:23:37.525Z,7.13
2022-10-09T12:26:05.705Z,7.10
2022-10-09T12:28:39.436Z,8.52
2022-10-09T12:31:20.015Z,7.07
2022-10-09T12:33:54.823Z,8.20
2022-10-09T12:36:28.621Z,6.70
2022-10-09T12:41:34.301Z,5.18
2022-10-09T12:44:04.108Z,7.15
2022-10-09T12:46:39.255Z,6.90
2022-10-09T12:49:18.448Z,7.35
2022-10-09T12:51:53.874Z,6.88
2022-10-09T12:54:25.310Z,7.00
2022-10-09T12:56:54.548Z,4.70
2022-10-09T12:59:23.627Z,6.43
2022-10-09T13:01:54.519Z,4.72
2022-10-09T13:04:30.975Z,4.80
2022-10-09T13:07:00.022Z,4.38
2022-10-09T13:09:39.839Z,7.03
2022-10-09T13:12:09.093Z,6.75
2022-10-09T13:14:41.325Z,5.90
2022-10-09T13:17:29.712Z,6.38
2022-10-09T13:20:00.153Z,4.05
2022-10-09T13:22:35.201Z,3.63
2022-10-09T13:25:04.157Z,13.98
2022-10-09T13:27:38.174Z,4.88
2022-10-09T13:30:06.255Z,3.53
2022-10-09T13:32:33.309Z,5.90
2022-10-09T13:35:00.279Z,5.78
2022-10-09T13:37:27.781Z,4.47
2022-10-09T13:39:57.045Z,15.35
2022-10-09T13:42:26.739Z,6.03
2022-10-09T13:44:54.004Z,4.82
2022-10-09T13:47:24.577Z,3.40
2022-10-09T13:49:52.282Z,7.00
2022-10-09T13:52:19.284Z,4.13
2022-10-09T13:54:46.304Z,5.95
2022-10-09T13:57:13.242Z,3.17
2022-10-09T13:59:40.649Z,3.85
2022-10-09T14:02:08.130Z,5.85
2022-10-09T14:04:35.136Z,6.57
2022-10-09T14:07:02.074Z,3.67
2022-10-09T14:09:29.006Z,4.30
2022-10-09T14:11:55.967Z,4.47
2022-10-09T14:14:22.973Z,5.47
2022-10-09T14:16:50.849Z,5.15
2022-10-09T14:19:18.172Z,4.22
2022-10-09T14:21:46.893Z,4.68
2022-10-09T14:24:14.986Z,6.00
2022-10-09T14:26:41.929Z,7.38
2022-10-09T14:29:09.847Z,4.00
2022-10-09T14:31:36.984Z,3.05
2022-10-09T14:34:04.027Z,4.55
2022-10-09T14:36:31.791Z,4.75
2022-10-09T14:39:01.934Z,6.88
2022-10-09T14:41:32.151Z,5.32
2022-10-09T14:44:01.461Z,5.97
2022-10-09T14:46:29.667Z,6.32
2022-10-09T14:48:57.989Z,4.55
2022-10-09T14:51:26.966Z,6.53
2022-10-09T14:53:59.352Z,3.28
2022-10-09T14:56:27.608Z,4.35
2022-10-09T14:58:54.709Z,6.85
2022-10-09T15:01:23.437Z,7.05
2022-10-09T15:03:50.704Z,5.40
2022-10-09T15:06:20.232Z,7.40
2022-10-09T15:08:47.169Z,7.72
2022-10-09T15:11:14.137Z,7.45
2022-10-09T15:13:41.093Z,5.00
2022-10-09T15:16:13.339Z,4.72
2022-10-09T15:18:41.191Z,5.57
2022-10-09T15:21:16.994Z,5.97
2022-10-09T15:23:44.562Z,5.35
2022-10-09T15:26:11.588Z,7.18
2022-10-09T15:28:40.161Z,3.85
2022-10-09T15:31:14.851Z,6.55
2022-10-09T15:33:41.805Z,7.00
2022-10-09T15:36:08.714Z,5.15
2022-10-09T15:38:35.766Z,5.85
2022-10-09T15:41:02.686Z,5.55
2022-10-09T15:43:29.790Z,5.18
2022-10-09T15:46:03.492Z,3.55
2022-10-09T15:50:57.503Z,5.40
2022-10-09T15:53:25.328Z,5.13
2022-10-09T15:55:53.351Z,5.22
2022-10-09T15:58:20.809Z,5.63
2022-10-09T16:00:49.719Z,6.15
2022-10-09T16:03:18.967Z,7.28
2022-10-09T16:05:51.032Z,7.13
2022-10-09T16:08:19.148Z,7.38
2022-10-09T16:10:49.436Z,5.03
2022-10-09T16:13:17.019Z,5.70
2022-10-09T16:15:48.302Z,6.53
2022-10-09T16:18:17.252Z,6.05
2022-10-09T16:20:44.602Z,4.35
2022-10-09T16:23:12.589Z,6.00
2022-10-09T16:25:40.538Z,4.28
2022-10-09T16:28:09.531Z,4.47
2022-10-09T16:30:41.854Z,9.40
2022-10-09T16:33:12.650Z,4.38
2022-10-09T16:35:40.347Z,9.40
2022-10-09T16:38:07.635Z,7.03
2022-10-09T16:41:00.814Z,8.05
2022-10-09T16:43:21.832Z,5.07
2022-10-09T16:45:48.723Z,5.90
2022-10-09T16:48:15.663Z,5.05
2022-10-09T16:50:42.744Z,7.80
2022-10-09T16:53:09.853Z,5.38
2022-10-09T16:55:37.753Z,4.47
2022-10-09T16:58:04.977Z,6.72
2022-10-09T17:00:31.990Z,8.23
2022-10-09T17:02:59.025Z,11.15
2022-10-09T17:05:25.971Z,10.75
2022-10-09T17:07:53.920Z,12.55
2022-10-09T17:10:20.881Z,10.82
2022-10-09T17:12:47.888Z,12.38
2022-10-09T17:15:14.863Z,11.85
2022-10-09T17:17:41.869Z,11.23
2022-10-09T17:20:09.290Z,10.57
2022-10-09T17:22:36.396Z,8.90
2022-10-09T17:25:03.543Z,8.80
2022-10-09T17:27:30.607Z,9.52
2022-10-09T17:29:57.492Z,13.80
2022-10-09T17:32:25.210Z,11.80
2022-10-09T17:34:52.155Z,9.90
2022-10-09T17:37:19.079Z,13.48
2022-10-09T17:39:51.148Z,11.00
2022-10-09T17:42:19.147Z,7.60
2022-10-09T17:44:46.055Z,6.80
2022-10-09T17:47:13.044Z,14.30
2022-10-09T17:49:39.976Z,7.55
2022-10-09T17:52:06.966Z,9.20
2022-10-09T17:54:33.878Z,9.93
2022-10-09T17:57:01.480Z,8.65
2022-10-09T17:59:28.478Z,8.75
2022-10-09T18:01:55.503Z,10.95
2022-10-09T18:04:22.525Z,8.93
2022-10-09T18:06:49.571Z,11.00
2022-10-09T18:09:16.492Z,6.22
2022-10-09T18:11:43.751Z,6.22
2022-10-09T18:14:11.723Z,6.40
2022-10-09T18:16:39.731Z,7.38
2022-10-09T18:19:12.679Z,8.05
2022-10-09T18:21:42.906Z,7.60
2022-10-09T18:24:10.126Z,10.65
2022-10-09T18:26:37.854Z,9.18
2022-10-09T18:29:05.148Z,7.18
2022-10-09T18:31:32.740Z,7.60
2022-10-09T18:34:00.748Z,8.18
2022-10-09T18:36:33.601Z,7.28
2022-10-09T18:39:04.694Z,12.93
2022-10-09T18:41:31.864Z,11.65
2022-10-09T18:44:02.141Z,6.85
2022-10-09T18:46:37.067Z,12.70
2022-10-09T18:49:09.354Z,8.02
2022-10-09T18:51:38.908Z,7.07
2022-10-09T18:54:07.608Z,6.50
2022-10-09T18:56:36.286Z,6.07
2022-10-09T18:59:09.819Z,14.80
2022-10-09T19:01:38.194Z,9.18
2022-10-09T19:04:05.467Z,10.45
2022-10-09T19:06:32.581Z,8.27
2022-10-09T19:09:02.407Z,8.32
2022-10-09T19:11:31.633Z,12.30
2022-10-09T19:14:00.646Z,9.43
2022-10-09T19:16:29.103Z,13.13
2022-10-09T19:18:56.577Z,12.00
2022-10-09T19:21:24.051Z,10.85
2022-10-09T19:23:52.829Z,9.23
2022-10-09T19:26:21.228Z,11.32
2022-10-09T19:28:48.608Z,12.55
2022-10-09T19:31:15.738Z,11.05
2022-10-09T19:33:43.152Z,10.27
2022-10-09T19:36:12.439Z,10.40
2022-10-09T19:38:39.558Z,8.93
2022-10-09T19:41:09.655Z,8.02
2022-10-09T19:43:37.217Z,8.40
2022-10-09T19:46:07.434Z,7.30
2022-10-09T19:48:35.612Z,8.27
2022-10-09T19:51:07.884Z,7.85
2022-10-09T19:53:35.289Z,11.13
2022-10-09T19:56:03.088Z,7.35
2022-10-09T19:58:30.538Z,7.82
2022-10-09T20:00:57.486Z,11.65
2022-10-09T20:03:24.528Z,8.90
2022-10-09T20:05:51.512Z,7.95
2022-10-09T20:08:18.449Z,7.78
2022-10-09T20:10:45.396Z,8.30
2022-10-09T20:13:14.140Z,7.25
2022-10-09T20:15:44.092Z,7.30
2022-10-09T20:18:11.091Z,8.10
2022-10-09T20:20:38.080Z,10.63
2022-10-09T20:23:05.060Z,9.43
2022-10-09T20:25:31.952Z,6.97
2022-10-09T20:27:59.499Z,9.40
2022-10-09T20:30:26.398Z,9.32
2022-10-09T20:32:58.760Z,8.02
2022-10-09T20:35:26.688Z,8.02
2022-10-09T20:37:53.608Z,8.05
2022-10-09T20:40:20.667Z,6.97
2022-10-09T20:42:47.964Z,7.10
2022-10-09T20:45:15.283Z,8.38
2022-10-09T20:47:42.246Z,8.70
2022-10-09T20:50:09.823Z,6.85
2022-10-09T20:52:36.774Z,7.65
2022-10-09T20:55:03.969Z,10.35
2022-10-09T20:57:30.875Z,8.95
2022-10-09T20:59:57.904Z,8.88
2022-10-09T21:02:24.787Z,7.85
2022-10-09T21:04:52.039Z,8.30
2022-10-09T21:07:19.015Z,6.88
2022-10-09T21:09:46.004Z,9.88
2022-10-09T21:12:12.961Z,10.38
2022-10-09T21:14:39.924Z,9.13
2022-10-09T21:17:06.906Z,10.77
2022-10-09T21:19:34.131Z,6.88
2022-10-09T21:22:01.091Z,9.30
2022-10-09T21:24:28.136Z,8.15
2022-10-09T21:26:55.097Z,13.23
2022-10-09T21:29:22.369Z,9.93
2022-10-09T21:31:49.261Z,8.77
2022-10-09T21:34:16.244Z,9.25
2022-10-09T21:37:02.119Z,11.48
2022-10-09T21:39:31.582Z,9.07
2022-10-09T21:41:59.307Z,8.20
2022-10-09T21:44:26.387Z,7.53
2022-10-09T21:46:53.343Z,6.40
2022-10-09T21:49:23.337Z,11.50
2022-10-09T21:51:50.325Z,6.47
2022-10-09T21:54:17.346Z,7.68
2022-10-09T21:56:44.284Z,8.52
2022-10-09T21:59:11.219Z,12.45
2022-10-09T22:01:38.267Z,8.98
2022-10-09T22:04:05.503Z,9.80
2022-10-09T22:06:32.432Z,8.73
2022-10-09T22:09:00.044Z,7.63
2022-10-09T22:11:27.184Z,7.25
2022-10-09T22:13:55.487Z,6.30
2022-10-09T22:16:22.589Z,9.50
2022-10-09T22:18:49.529Z,5.82
2022-10-09T22:21:17.363Z,7.28
2022-10-09T22:23:44.875Z,10.35
2022-10-09T22:26:17.099Z,10.52
2022-10-09T22:28:45.355Z,9.93
2022-10-09T22:31:20.983Z,8.77
2022-10-09T22:33:52.641Z,10.40
2022-10-09T22:36:20.995Z,10.70
2022-10-09T22:38:48.207Z,10.63
2022-10-09T22:41:17.995Z,9.93
2022-10-09T22:43:47.439Z,10.57
2022-10-09T22:46:23.702Z,12.32
2022-10-09T22:48:51.348Z,8.98
2022-10-09T22:51:19.795Z,8.90
2022-10-09T22:53:47.285Z,7.57
2022-10-09T22:56:22.638Z,7.03
2022-10-09T22:58:53.019Z,8.20
2022-10-09T23:01:40.636Z,8.30
2022-10-09T23:04:10.973Z,9.23
2022-10-09T23:06:38.782Z,9.50
2022-10-09T23:09:07.516Z,10.25
2022-10-09T23:11:35.007Z,10.32
2022-10-09T23:14:03.481Z,7.72
2022-10-09T23:16:31.443Z,9.18
2022-10-09T23:19:06.153Z,10.82
2022-10-09T23:21:34.442Z,9.18
2022-10-09T23:24:01.415Z,9.40
2022-10-09T23:26:30.565Z,12.40
2022-10-09T23:29:02.246Z,9.35
2022-10-09T23:31:30.204Z,8.38
2022-10-09T23:33:57.750Z,7.50
2022-10-09T23:36:26.942Z,7.90
2022-10-09T23:38:54.886Z,11.35
2022-10-09T23:41:24.027Z,9.35
2022-10-09T23:43:51.639Z,6.93
2022-10-09T23:46:22.232Z,7.05
2022-10-09T23:48:50.675Z,9.15
2022-10-09T23:51:19.085Z,8.77
2022-10-09T23:53:46.404Z,7.13
2022-10-09T23:56:25.468Z,8.55
2022-10-09T23:58:53.323Z,7.70
